Hovedside
METAR-TAF:

METAR-TAF

Lufthavner :

Kalmar, Sverige

Kalmar lufthavn

breddegrad: 56-44N, lengdegrad: 016-18E, høyde over havet: 16 m

Gjeldene værobservasjon

Denne rapporten ble laget for 18 minutter siden, klokken 04:20 UTC
Vind 9 kt fra Sør-sørvest
Temperatur 0°C
Luftfuktighet 80%
Trykk 998 hPa
Sikt 10 km eller mer
ingen skyer under 1500 m og ingen bygeskyer

METAR: ESMQ 250420Z 21009KT CAVOK 00/M03 Q0998

Tid: 06:38 (04:38 UTC)

Varsel

Denne rapporten ble laget for 1 time og 38 minutter siden, klokken 03:00 UTC
Varsel gyldig fra 25. klokken 04 UTC til 25. klokken 12 UTC
Vind 10 kt fra Sørvest
Sikt 10 km eller mer
ingen skyer under 1500 m og ingen bygeskyer
Blir
fra 25. klokken 07 UTC til 25. klokken 09 UTC
Vind 15 kt fra Vest-sørvest med vindkast opp mot 25 kt

TAF: ESMQ 250300Z 2504/2512 23010KT CAVOK BECMG 2507/2509 24015G25KT

Værobservasjoner og værvarsel for over 4000 flyplasser (METAR- og TAF-rapporter).

Tilgjengelige stasjoner er representert av de røde og gule prikkene på kartet.

Hold musepekeren over prikken for å se navnet på stasjonen.

Klikk så for å se værobservasjoner og -varsler.

For å forandre kartet kan du klikke på den grønne knappen med svart kryss for å zoome inn, på den grønne knappen med strek for å zoome ut, eller på de grønne pilene for å se tilstøtende kart.


METAR-TAF: